^^
Station Historical Data
Daily Summary for January 03, 2018 Units:  Metric    English   Both
« Previous Day
Next Day »
Daily Weekly Monthly Yearly Custom
  High: Low: Average:
Temperature: -17.8 °C 2.2 °C 7.7 °C
Dew Point: -17.8 °C -0.7 °C 6.2 °C
Humidity: Humidity% 71% 90%
Wind Speed: 0km/h 0km/h 0km/h
Wind Gust: 0km/h - -
Wind- - North
Pressure: 0 hPa 1013.4 hPa -
Precipitation: 25.15 mm    
Historical Graphs
 
 
Tabular Data for January 03, 2018
Time Temperature Dew Point Pressure Wind Wind Speed Wind Gust Humidity Rainfall Rate (Hourly) solar Conditions
-17.8 °C -17.8 °C 0 hPa Calm     Humidity% 0 mm SolarRadiationWatts/m^2 W/m2 Conditions
00:00 8.9 °C 7.7 °C 1021.2 hPa Calm     92% 0 mm 0.0 W/m2 OVC
00:10 8.9 °C 7.7 °C 1020.9 hPa Calm     92% 0 mm 0.0 W/m2 -RA
00:20 8.9 °C 7.7 °C 1020.9 hPa Calm     92% 0 mm 0.0 W/m2 -RA
00:25 8.9 °C 7.7 °C 1020.9 hPa Calm     92% 0 mm 0.0 W/m2 -RA
00:30 8.9 °C 7.7 °C 1020.9 hPa Calm     92% 0 mm 0.0 W/m2 -RA
00:40 8.9 °C 7.7 °C 1020.9 hPa Calm     92% 0 mm 0.0 W/m2 -RA
00:50 8.9 °C 7.7 °C 1020.9 hPa Calm     92% 0 mm 0.0 W/m2 -RA
00:55 8.9 °C 7.7 °C 1020.9 hPa Calm     92% 0 mm 0.0 W/m2 -RA
01:10 8.9 °C 8.3 °C 1019.5 hPa Calm     96% 0 mm 0.0 W/m2 RA
01:15 8.9 °C 8.3 °C 1019.5 hPa Calm     96% 0 mm 0.0 W/m2 OVC
01:25 8.9 °C 8.3 °C 1019.5 hPa Calm     96% 0 mm 0.0 W/m2 OVC
01:30 8.9 °C 8.3 °C 1019.5 hPa Calm     96% 0 mm 0.0 W/m2 OVC
01:40 8.9 °C 8.3 °C 1019.2 hPa Calm     96% 0 mm 0.0 W/m2 OVC
01:45 8.9 °C 8.3 °C 1019.2 hPa Calm     96% 0 mm 0.0 W/m2 OVC
01:55 8.9 °C 8.3 °C 1019.2 hPa Calm     96% 0 mm 0.0 W/m2 OVC
02:00 8.9 °C 8.3 °C 1019.2 hPa Calm     96% 0 mm 0.0 W/m2 OVC
02:15 8.9 °C 8.3 °C 1018.8 hPa Calm     96% 0 mm 0.0 W/m2 OVC
02:25 8.9 °C 8.3 °C 1018.8 hPa Calm     96% 0 mm 0.0 W/m2 OVC
02:30 8.9 °C 8.3 °C 1018.8 hPa Calm     96% 0 mm 0.0 W/m2 OVC
02:40 8.9 °C 8.3 °C 1018.8 hPa Calm     96% 0 mm 0.0 W/m2 OVC
02:45 8.9 °C 8.3 °C 1018.8 hPa Calm     96% 0 mm 0.0 W/m2 OVC
02:55 8.9 °C 8.3 °C 1018.8 hPa Calm     96% 0 mm 0.0 W/m2 OVC
03:00 8.9 °C 8.3 °C 1018.8 hPa Calm     96% 0 mm 0.0 W/m2 OVC
03:05 9.4 °C 8.8 °C 1017.8 hPa Calm     96% 0.51 mm 0.0 W/m2 RA
03:10 9.4 °C 8.8 °C 1017.8 hPa Calm     96% 0.51 mm 0.0 W/m2 RA
03:15 9.4 °C 8.8 °C 1017.8 hPa Calm     96% 0 mm 0.0 W/m2 OVC
03:25 9.4 °C 8.8 °C 1017.8 hPa Calm     96% 0 mm 0.0 W/m2 OVC
03:30 9.4 °C 8.8 °C 1017.8 hPa Calm     96% 0 mm 0.0 W/m2 OVC
03:40 9.4 °C 8.8 °C 1017.8 hPa Calm     96% 0 mm 0.0 W/m2 -RA
03:45 9.4 °C 8.8 °C 1017.8 hPa Calm     96% 0 mm 0.0 W/m2 -RA
03:55 9.4 °C 8.8 °C 1017.8 hPa Calm     96% 0 mm 0.0 W/m2 -RA
04:00 9.4 °C 8.8 °C 1017.8 hPa Calm     96% 0 mm 0.0 W/m2 -RA
04:10 8.9 °C 8.9 °C 1016.8 hPa Calm     100% 0 mm 0.0 W/m2 OVC
04:15 8.9 °C 8.9 °C 1016.8 hPa Calm     100% 0 mm 0.0 W/m2 OVC
04:30 8.9 °C 8.9 °C 1016.8 hPa Calm     100% 0 mm 0.0 W/m2 OVC
04:40 8.9 °C 8.9 °C 1016.1 hPa Calm     100% 0 mm 0.0 W/m2 OVC
04:45 8.9 °C 8.9 °C 1016.1 hPa Calm     100% 0 mm 0.0 W/m2 OVC
04:55 8.9 °C 8.9 °C 1016.1 hPa Calm     100% 0 mm 0.0 W/m2 OVC
05:10 9.4 °C 9.4 °C 1015.8 hPa Calm     100% 0 mm 0.0 W/m2 RA
05:15 9.4 °C 9.4 °C 1015.8 hPa Calm     100% 0 mm 0.0 W/m2 OVC
05:25 9.4 °C 9.4 °C 1015.8 hPa Calm     100% 0 mm 0.0 W/m2 OVC
05:30 9.4 °C 9.4 °C 1015.8 hPa Calm     100% 0 mm 0.0 W/m2 OVC
05:40 9.4 °C 9.4 °C 1015.8 hPa Calm     100% 0 mm 0.0 W/m2 +RA
05:45 9.4 °C 9.4 °C 1015.8 hPa Calm     100% 0 mm 0.0 W/m2 +RA
05:55 9.4 °C 9.4 °C 1015.8 hPa Calm     100% 0 mm 0.0 W/m2 OVC
06:00 9.4 °C 9.4 °C 1015.8 hPa Calm     100% 0 mm 0.0 W/m2 OVC
06:10 9.4 °C 9.4 °C 1015.5 hPa Calm     100% 2.79 mm 0.0 W/m2 +RA
06:15 9.4 °C 9.4 °C 1015.5 hPa Calm     100% 0 mm 0.0 W/m2 +RA
06:25 10 °C 10 °C 1015.5 hPa Calm     100% 0 mm 0.0 W/m2 +RA
06:30 10 °C 10 °C 1015.5 hPa Calm     100% 0 mm 0.0 W/m2 +RA
06:40 10 °C 10 °C 1015.1 hPa Calm     100% 0 mm 0.0 W/m2 +RA
06:45 10 °C 10 °C 1015.1 hPa Calm     100% 0 mm 0.0 W/m2 +RA
06:55 10 °C 10 °C 1015.1 hPa Calm     100% 0 mm 0.0 W/m2 +RA
07:00 10 °C 10 °C 1015.1 hPa Calm     100% 0 mm 0.0 W/m2 +RA
07:10 10 °C 10 °C 1015.8 hPa Calm     100% 5.33 mm 0.0 W/m2 +RA
07:15 10 °C 10 °C 1015.8 hPa Calm     100% 0 mm 0.0 W/m2 +RA
07:25 10.6 °C 10.6 °C 1015.5 hPa Calm     100% 0 mm 0.0 W/m2 OVC
07:30 10.6 °C 10.6 °C 1015.5 hPa Calm     100% 0 mm 0.0 W/m2 OVC
07:40 10.6 °C 10.6 °C 1015.5 hPa Calm     100% 0 mm 0.0 W/m2 OVC
07:45 10.6 °C 10.6 °C 1015.5 hPa Calm     100% 0 mm 0.0 W/m2 OVC
07:50 10.6 °C 10.6 °C 1015.1 hPa Calm     100% 0 mm 0.0 W/m2 -RA
08:00 10.6 °C 10.6 °C 1015.1 hPa Calm     100% 0 mm 0.0 W/m2 -RA
08:10 10.6 °C 10.6 °C 1015.1 hPa Calm     100% 0 mm 0.0 W/m2 RA
08:15 10.6 °C 10.6 °C 1015.1 hPa Calm     100% 0 mm 0.0 W/m2 OVC
08:25 10.6 °C 10.6 °C 1015.1 hPa Calm     100% 0 mm 0.0 W/m2 OVC
08:30 10.6 °C 10.6 °C 1015.1 hPa Calm     100% 0 mm 0.0 W/m2 OVC
08:45 10.6 °C 10.6 °C 1015.1 hPa Calm     100% 0 mm 0.0 W/m2 OVC
08:55 11.1 °C 11.1 °C 1014.4 hPa Calm     100% 0 mm 0.0 W/m2 OVC
09:05 10.6 °C 10.6 °C 1014.4 hPa Calm     100% 0 mm 0.0 W/m2 -RA
09:10 10.6 °C 10.6 °C 1014.4 hPa Calm     100% 2.79 mm 0.0 W/m2 -RA
09:15 10.6 °C 10.6 °C 1014.4 hPa Calm     100% 0 mm 0.0 W/m2 -RA
09:25 10.6 °C 10.6 °C 1014.4 hPa Calm     100% 0 mm 0.0 W/m2 -RA
09:30 10.6 °C 10.6 °C 1014.4 hPa Calm     100% 0 mm 0.0 W/m2 -RA
09:40 10.6 °C 10.6 °C 1014.4 hPa Calm     100% 0 mm 0.0 W/m2 -RA
09:45 10.6 °C 10.6 °C 1014.4 hPa Calm     100% 0 mm 0.0 W/m2 -RA
09:55 10.6 °C 10.6 °C 1014.4 hPa Calm     100% 0 mm 0.0 W/m2 OVC
10:00 10.6 °C 10.6 °C 1014.4 hPa Calm     100% 0 mm 0.0 W/m2 OVC
10:10 8.9 °C 8.9 °C 1016.5 hPa Calm     100% 0 mm 0.0 W/m2 +RA
10:15 8.9 °C 8.9 °C 1016.5 hPa Calm     100% 0 mm 0.0 W/m2 +RA
10:25 6.7 °C 5.9 °C 1017.8 hPa Calm     95% 0 mm 0.0 W/m2 +RA
10:30 6.7 °C 5.9 °C 1017.8 hPa Calm     95% 0 mm 0.0 W/m2 +RA
10:40 5 °C 4.3 °C 1018.2 hPa Calm     95% 0 mm 0.0 W/m2 +RA
10:55 5 °C 4.3 °C 1018.2 hPa Calm     95% 0 mm 0.0 W/m2 +RA
11:00 5 °C 4.3 °C 1018.2 hPa Calm     95% 0 mm 0.0 W/m2 +RA
11:10 3.9 °C 3.2 °C 1017.8 hPa Calm     95% 0 mm 0.0 W/m2 -SN
11:15 3.9 °C 3.2 °C 1017.8 hPa Calm     95% 0 mm 0.0 W/m2 -SN
11:25 3.9 °C 3.2 °C 1017.8 hPa Calm     95% 0 mm 0.0 W/m2 -SN
11:30 3.9 °C 3.2 °C 1017.8 hPa Calm     95% 0 mm 0.0 W/m2 -SN
11:40 3.9 °C 3.2 °C 1017.8 hPa Calm     95% 0 mm 0.0 W/m2 -SN
11:45 3.9 °C 3.2 °C 1017.8 hPa Calm     95% 0 mm 0.0 W/m2 -SN
11:55 3.9 °C 3.2 °C 1017.8 hPa Calm     95% 0 mm 0.0 W/m2 OVC
12:00 3.9 °C 3.2 °C 1017.8 hPa Calm     95% 0 mm 0.0 W/m2 OVC
12:10 5 °C 5 °C 1015.5 hPa Calm     100% 0 mm 0.0 W/m2 -RA
12:15 5 °C 5 °C 1015.5 hPa Calm     100% 0 mm 0.0 W/m2 -RA
12:25 5 °C 5 °C 1015.5 hPa Calm     100% 0 mm 0.0 W/m2 -RA
12:30 5 °C 5 °C 1015.5 hPa Calm     100% 0 mm 0.0 W/m2 -RA
12:40 5 °C 5 °C 1015.5 hPa Calm     100% 0 mm 0.0 W/m2 -RA
12:45 5 °C 5 °C 1015.5 hPa Calm     100% 0 mm 0.0 W/m2 -RA
12:55 6.7 °C 6.7 °C 1015.8 hPa Calm     100% 0 mm 0.0 W/m2 -RA
13:05 6.7 °C 6.7 °C 1015.8 hPa Calm     100% 0 mm 0.0 W/m2 RA
13:25 6.7 °C 6.7 °C 1014.8 hPa Calm     100% 0 mm 0.0 W/m2 OVC
13:30 6.7 °C 6.7 °C 1014.8 hPa Calm     100% 0 mm 0.0 W/m2 OVC
13:40 6.7 °C 6.7 °C 1014.8 hPa Calm     100% 0 mm 0.0 W/m2 OVC
13:45 6.7 °C 6.7 °C 1014.8 hPa Calm     100% 0 mm 0.0 W/m2 OVC
13:55 6.7 °C 6.7 °C 1014.8 hPa Calm     100% 0 mm 0.0 W/m2 OVC
14:00 6.7 °C 6.7 °C 1014.8 hPa Calm     100% 0 mm 0.0 W/m2 OVC
14:10 8.9 °C 7.2 °C 1013.8 hPa Calm     89% 0 mm 0.0 W/m2 RA
14:15 8.9 °C 7.2 °C 1013.8 hPa Calm     89% 0 mm 0.0 W/m2 BKN
14:25 8.9 °C 7.2 °C 1013.8 hPa Calm     89% 0 mm 0.0 W/m2 BKN
14:30 8.9 °C 7.2 °C 1013.8 hPa Calm     89% 0 mm 0.0 W/m2 BKN
14:40 8.9 °C 7.2 °C 1013.8 hPa Calm     89% 0 mm 0.0 W/m2 BKN
14:45 8.9 °C 7.2 °C 1013.8 hPa Calm     89% 0 mm 0.0 W/m2 BKN
14:55 8.9 °C 7.2 °C 1013.8 hPa Calm     89% 0 mm 0.0 W/m2 BKN
15:10 10 °C 6.5 °C 1013.8 hPa Calm     79% 0 mm 0.0 W/m2 OVC
15:20 10 °C 6.5 °C 1013.8 hPa Calm     79% 0 mm 0.0 W/m2 OVC
15:25 10 °C 6.5 °C 1013.8 hPa Calm     79% 0 mm 0.0 W/m2 OVC
15:30 10 °C 6.5 °C 1013.8 hPa Calm     79% 0 mm 0.0 W/m2 OVC
15:40 10 °C 6.5 °C 1013.8 hPa Calm     79% 0 mm 0.0 W/m2 OVC
15:45 10 °C 6.5 °C 1013.8 hPa Calm     79% 0 mm 0.0 W/m2 OVC
15:55 10 °C 5.9 °C 1013.8 hPa Calm     76% 0 mm 0.0 W/m2 OVC
16:00 10 °C 5.9 °C 1013.8 hPa Calm     76% 0 mm 0.0 W/m2 OVC
16:10 9.4 °C 5.6 °C 1013.8 hPa Calm     77% 0 mm 0.0 W/m2 BKN
16:15 9.4 °C 5.6 °C 1013.8 hPa Calm     77% 0 mm 0.0 W/m2 BKN
16:25 9.4 °C 5.6 °C 1013.8 hPa Calm     77% 0 mm 0.0 W/m2 BKN
16:30 9.4 °C 5.6 °C 1013.8 hPa Calm     77% 0 mm 0.0 W/m2 BKN
16:45 9.4 °C 5.6 °C 1013.8 hPa Calm     77% 0 mm 0.0 W/m2 BKN
16:50 9.4 °C 5.6 °C 1013.8 hPa Calm     77% 0 mm 0.0 W/m2 BKN
17:00 9.4 °C 5.6 °C 1013.8 hPa Calm     77% 0 mm 0.0 W/m2 BKN
17:10 10 °C 5 °C 1013.4 hPa Calm     71% 0 mm 0.0 W/m2 FEW
17:20 10 °C 5 °C 1013.4 hPa Calm     71% 0 mm 0.0 W/m2 FEW
17:30 10 °C 5 °C 1013.4 hPa Calm     71% 0 mm 0.0 W/m2 FEW
17:40 10 °C 5 °C 1013.4 hPa Calm     71% 0 mm 0.0 W/m2 FEW
17:45 10 °C 5 °C 1013.4 hPa Calm     71% 0 mm 0.0 W/m2 FEW
18:00 10 °C 5 °C 1013.4 hPa Calm     71% 0 mm 0.0 W/m2 BKN
18:10 8.3 °C 4.9 °C 1014.1 hPa Calm     79% 0 mm 0.0 W/m2 BKN
18:15 8.3 °C 4.9 °C 1014.1 hPa Calm     79% 0 mm 0.0 W/m2 BKN
18:25 8.3 °C 4.9 °C 1014.1 hPa Calm     79% 0 mm 0.0 W/m2 BKN
18:30 8.3 °C 4.9 °C 1014.1 hPa Calm     79% 0 mm 0.0 W/m2 BKN
18:40 8.3 °C 4.9 °C 1014.1 hPa Calm     79% 0 mm 0.0 W/m2 BKN
18:45 8.3 °C 4.9 °C 1014.1 hPa Calm     79% 0 mm 0.0 W/m2 BKN
19:00 8.3 °C 4.9 °C 1014.1 hPa Calm     79% 0 mm 0.0 W/m2 BKN
19:10 7.2 °C 4.3 °C 1015.1 hPa Calm     82% 0 mm 0.0 W/m2 OVC
19:15 7.2 °C 4.3 °C 1015.1 hPa Calm     82% 0 mm 0.0 W/m2 OVC
19:25 7.2 °C 3.8 °C 1015.5 hPa Calm     79% 0 mm 0.0 W/m2 OVC
19:30 7.2 °C 3.8 °C 1015.5 hPa Calm     79% 0 mm 0.0 W/m2 OVC
19:40 7.2 °C 3.8 °C 1015.5 hPa Calm     79% 0 mm 0.0 W/m2 OVC
19:45 7.2 °C 3.8 °C 1015.5 hPa Calm     79% 0 mm 0.0 W/m2 OVC
19:55 7.2 °C 3.8 °C 1015.5 hPa Calm     79% 0 mm 0.0 W/m2 OVC
20:00 7.2 °C 3.8 °C 1015.5 hPa Calm     79% 0 mm 0.0 W/m2 OVC
20:05 6.1 °C 2.7 °C 1016.1 hPa Calm     79% 0 mm 0.0 W/m2 BKN
20:10 6.1 °C 2.7 °C 1016.1 hPa Calm     79% 0 mm 0.0 W/m2 BKN
20:25 6.1 °C 2.7 °C 1016.1 hPa Calm     79% 0 mm 0.0 W/m2 BKN
20:30 6.1 °C 2.7 °C 1016.1 hPa Calm     79% 0 mm 0.0 W/m2 BKN
20:40 5.6 °C 2.1 °C 1016.8 hPa Calm     78% 0 mm 0.0 W/m2 BKN
20:45 5.6 °C 2.1 °C 1016.8 hPa Calm     78% 0 mm 0.0 W/m2 BKN
20:55 5.6 °C 2.1 °C 1016.8 hPa Calm     78% 0 mm 0.0 W/m2 BKN
21:00 5.6 °C 2.1 °C 1016.8 hPa Calm     78% 0 mm 0.0 W/m2 BKN
21:10 5 °C 1.7 °C 1017.2 hPa Calm     79% 0 mm 0.0 W/m2 OVC
21:15 5 °C 1.7 °C 1017.2 hPa Calm     79% 0 mm 0.0 W/m2 OVC
21:25 5 °C 1.7 °C 1017.2 hPa Calm     79% 0 mm 0.0 W/m2 OVC
21:30 5 °C 1.7 °C 1017.2 hPa Calm     79% 0 mm 0.0 W/m2 OVC
21:40 5 °C 1.7 °C 1017.2 hPa Calm     79% 0 mm 0.0 W/m2 OVC
21:45 5 °C 1.7 °C 1017.2 hPa Calm     79% 0 mm 0.0 W/m2 OVC
21:55 5 °C 1.7 °C 1017.2 hPa Calm     79% 0 mm 0.0 W/m2 OVC
22:00 5 °C 1.7 °C 1017.2 hPa Calm     79% 0 mm 0.0 W/m2 OVC
22:10 3.9 °C 0.6 °C 1018.2 hPa Calm     79% 0 mm 0.0 W/m2 OVC
22:15 3.9 °C 0.6 °C 1018.2 hPa Calm     79% 0 mm 0.0 W/m2 OVC
22:25 3.9 °C 0.6 °C 1018.2 hPa Calm     79% 0 mm 0.0 W/m2 OVC
22:30 3.9 °C 0.6 °C 1018.2 hPa Calm     79% 0 mm 0.0 W/m2 OVC
22:40 2.8 °C -0.7 °C 1018.2 hPa Calm     78% 0 mm 0.0 W/m2 SCT
22:45 2.8 °C -0.7 °C 1018.2 hPa Calm     78% 0 mm 0.0 W/m2 SCT
22:55 2.8 °C -0.7 °C 1018.2 hPa Calm     78% 0 mm 0.0 W/m2 SCT
23:00 2.8 °C -0.7 °C 1018.2 hPa Calm     78% 0 mm 0.0 W/m2 SCT
23:15 2.2 °C -0.7 °C 1018.5 hPa Calm     81% 0 mm 0.0 W/m2 CLR
23:20 2.2 °C -0.7 °C 1018.5 hPa Calm     81% 0 mm 0.0 W/m2 CLR
23:25 2.2 °C -0.7 °C 1018.5 hPa Calm     81% 0 mm 0.0 W/m2 CLR
23:40 2.2 °C -0.7 °C 1018.5 hPa Calm     81% 0 mm 0.0 W/m2 CLR
23:45 2.2 °C -0.7 °C 1018.5 hPa Calm     81% 0 mm 0.0 W/m2 CLR
23:55 2.2 °C -0.7 °C 1018.5 hPa Calm     81% 0 mm 0.0 W/m2 CLR
Lake Mary, FL, USA
Compliments of Weather Underground - 1.5 mb